createdAt,value
2018-07-12T00:01:20.564Z,101018.00
2018-07-12T00:06:23.373Z,101017.00
2018-07-12T00:11:26.180Z,101024.00
2018-07-12T00:16:28.992Z,101025.00
2018-07-12T00:21:31.792Z,101034.00
2018-07-12T00:26:34.601Z,101031.00
2018-07-12T00:31:37.157Z,101027.00
2018-07-12T00:36:40.015Z,101025.00
2018-07-12T00:41:42.826Z,101026.00
2018-07-12T00:46:45.632Z,101022.00
2018-07-12T00:51:48.193Z,101028.00
2018-07-12T00:56:51.005Z,101033.00
2018-07-12T01:01:53.834Z,101029.00
2018-07-12T01:06:56.393Z,101030.00
2018-07-12T01:11:59.204Z,101024.00
2018-07-12T01:17:02.009Z,101026.00
2018-07-12T01:22:04.825Z,101025.00
2018-07-12T01:27:07.628Z,101020.00
2018-07-12T01:32:10.186Z,101019.00
2018-07-12T01:37:12.996Z,101015.00
2018-07-12T01:42:15.824Z,101014.00
2018-07-12T01:47:18.629Z,101011.00
2018-07-12T01:52:21.417Z,101013.00
2018-07-12T01:57:24.226Z,101028.00
2018-07-12T02:02:27.029Z,101021.00
2018-07-12T02:07:29.580Z,101020.00
2018-07-12T02:12:32.385Z,101017.00
2018-07-12T02:17:34.965Z,101023.00
2018-07-12T02:22:37.526Z,101023.00
2018-07-12T02:27:40.464Z,101022.00
2018-07-12T02:32:43.145Z,101014.00
2018-07-12T02:37:45.957Z,101016.00
2018-07-12T02:42:48.775Z,101015.00
2018-07-12T02:47:51.585Z,101015.00
2018-07-12T02:52:54.141Z,101018.00
2018-07-12T02:57:56.996Z,101024.00
2018-07-12T03:02:59.806Z,101026.00
2018-07-12T03:08:02.410Z,101024.00
2018-07-12T03:13:05.215Z,101023.00
2018-07-12T03:18:08.049Z,101021.00
2018-07-12T03:23:10.597Z,101031.00
2018-07-12T03:28:13.410Z,101024.00
2018-07-12T03:33:16.209Z,101027.00
2018-07-12T03:38:18.767Z,101028.00
2018-07-12T03:43:21.580Z,101037.00
2018-07-12T03:48:24.385Z,101044.00
2018-07-12T03:53:27.184Z,101042.00
2018-07-12T03:58:29.722Z,101055.00
2018-07-12T04:03:32.265Z,101055.00
2018-07-12T04:08:35.051Z,101050.00
2018-07-12T04:13:37.868Z,101052.00
2018-07-12T04:18:40.655Z,101050.00
2018-07-12T04:23:43.448Z,101045.00
2018-07-12T04:28:46.244Z,101049.00
2018-07-12T04:33:48.780Z,101047.00
2018-07-12T04:38:51.581Z,101049.00
2018-07-12T04:43:54.117Z,101055.00
2018-07-12T04:48:56.912Z,101053.00
2018-07-12T04:53:59.708Z,101047.00
2018-07-12T04:59:02.500Z,101058.00
2018-07-12T05:04:05.288Z,101057.00
2018-07-12T05:09:09.116Z,101058.00
2018-07-12T05:14:11.902Z,101057.00
2018-07-12T05:19:14.432Z,101057.00
2018-07-12T05:24:17.240Z,101056.00
2018-07-12T05:29:20.029Z,101063.00
2018-07-12T05:34:23.360Z,101069.00
2018-07-12T05:39:27.129Z,101062.00
2018-07-12T05:44:31.120Z,101066.00
2018-07-12T05:49:35.137Z,101072.00
2018-07-12T05:54:38.931Z,101079.00
2018-07-12T05:59:42.692Z,101084.00
2018-07-12T06:04:46.676Z,101087.00
2018-07-12T06:09:50.464Z,101095.00
2018-07-12T06:14:54.208Z,101091.00
2018-07-12T06:19:57.994Z,101097.00
2018-07-12T06:25:01.753Z,101102.00
2018-07-12T06:30:05.753Z,101111.00
2018-07-12T06:35:10.509Z,101116.00
2018-07-12T06:40:14.256Z,101124.00
2018-07-12T06:45:18.018Z,101127.00
2018-07-12T06:50:21.767Z,101131.00
2018-07-12T06:55:25.808Z,101132.00
2018-07-12T07:00:29.810Z,101139.00
2018-07-12T07:05:33.573Z,101138.00
2018-07-12T07:10:37.636Z,101133.00
2018-07-12T07:15:41.408Z,101137.00
2018-07-12T07:20:45.417Z,101150.00
2018-07-12T07:25:49.176Z,101157.00
2018-07-12T07:30:52.944Z,101156.00
2018-07-12T07:35:56.980Z,101155.00
2018-07-12T07:41:00.741Z,101167.00
2018-07-12T07:46:04.528Z,101176.00
2018-07-12T07:51:09.329Z,101170.00
2018-07-12T07:56:13.103Z,101168.00
2018-07-12T08:01:17.097Z,101176.00
2018-07-12T08:06:20.863Z,101170.00
2018-07-12T08:11:24.642Z,101175.00
2018-07-12T08:16:28.649Z,101171.00
2018-07-12T08:21:32.644Z,101173.00
2018-07-12T08:26:36.706Z,101170.00
2018-07-12T08:31:40.476Z,101170.00
2018-07-12T08:36:44.236Z,101176.00
2018-07-12T08:41:48.000Z,101179.00
2018-07-12T08:46:51.760Z,101186.00
2018-07-12T08:51:55.524Z,101187.00
2018-07-12T08:56:59.295Z,101191.00
2018-07-12T09:02:03.107Z,101188.00
2018-07-12T09:07:06.864Z,101189.00
2018-07-12T09:12:10.734Z,101191.00
2018-07-12T09:17:14.575Z,101195.00
2018-07-12T09:22:18.343Z,101195.00
2018-07-12T09:27:22.134Z,101219.00
2018-07-12T09:32:25.949Z,101220.00
2018-07-12T09:37:29.746Z,101200.00
2018-07-12T09:42:33.748Z,101200.00
2018-07-12T09:47:37.567Z,101192.00
2018-07-12T09:52:41.331Z,101204.00
2018-07-12T09:57:56.600Z,101205.00
2018-07-12T10:03:05.824Z,101201.00
2018-07-12T10:08:15.025Z,101196.00
2018-07-12T10:13:24.911Z,101197.00
2018-07-12T10:18:29.239Z,101192.00
2018-07-12T10:23:33.035Z,101195.00
2018-07-12T10:28:36.860Z,101196.00
2018-07-12T10:33:40.617Z,101201.00
2018-07-12T10:38:44.409Z,101204.00
2018-07-12T10:43:48.175Z,101204.00
2018-07-12T10:48:51.951Z,101198.00
2018-07-12T10:53:55.751Z,101197.00
2018-07-12T10:58:59.577Z,101197.00
2018-07-12T11:04:03.556Z,101201.00
2018-07-12T11:09:08.257Z,101192.00
2018-07-12T11:14:11.988Z,101195.00
2018-07-12T11:19:15.769Z,101194.00
2018-07-12T11:24:19.768Z,101190.00
2018-07-12T11:29:35.689Z,101190.00
2018-07-12T11:34:39.448Z,101185.00
2018-07-12T11:39:43.211Z,101191.00
2018-07-12T11:44:47.399Z,101183.00
2018-07-12T11:49:51.175Z,101179.00
2018-07-12T11:54:55.120Z,101176.00
2018-07-12T11:59:58.892Z,101185.00
2018-07-12T12:05:02.745Z,101181.00
2018-07-12T12:10:06.518Z,101181.00
2018-07-12T12:15:12.285Z,101179.00
2018-07-12T12:20:16.423Z,101168.00
2018-07-12T12:25:20.454Z,101164.00
2018-07-12T12:30:24.355Z,101168.00
2018-07-12T12:35:28.127Z,101170.00
2018-07-12T12:40:31.896Z,101170.00
2018-07-12T12:45:35.659Z,101168.00
2018-07-12T12:50:39.449Z,101165.00
2018-07-12T12:55:43.216Z,101156.00
2018-07-12T13:00:47.252Z,101147.00
2018-07-12T13:05:51.175Z,101150.00
2018-07-12T13:10:55.146Z,101155.00
2018-07-12T13:15:58.991Z,101145.00
2018-07-12T13:21:02.663Z,101142.00
2018-07-12T13:26:06.486Z,101147.00
2018-07-12T13:31:10.278Z,101146.00
2018-07-12T13:36:14.031Z,101144.00
2018-07-12T13:41:17.795Z,101141.00
2018-07-12T13:46:21.561Z,101139.00
2018-07-12T13:51:25.329Z,101132.00
2018-07-12T13:56:29.321Z,101133.00
2018-07-12T14:01:33.100Z,101136.00
2018-07-12T14:06:37.112Z,101131.00
2018-07-12T14:11:41.152Z,101127.00
2018-07-12T14:16:44.975Z,101125.00
2018-07-12T14:21:48.989Z,101124.00
2018-07-12T14:26:52.761Z,101119.00
2018-07-12T14:31:56.603Z,101112.00
2018-07-12T14:37:00.643Z,101113.00
2018-07-12T14:42:04.439Z,101106.00
2018-07-12T14:47:08.283Z,101106.00
2018-07-12T14:52:12.295Z,101102.00
2018-07-12T14:57:16.934Z,101101.00
2018-07-12T15:02:20.712Z,101104.00
2018-07-12T15:07:24.716Z,101100.00
2018-07-12T15:12:28.594Z,101107.00
2018-07-12T15:17:32.356Z,101111.00
2018-07-12T15:22:36.127Z,101104.00
2018-07-12T15:27:39.911Z,101101.00
2018-07-12T15:32:43.679Z,101093.00
2018-07-12T15:37:47.684Z,101089.00
2018-07-12T15:42:51.487Z,101086.00
2018-07-12T15:47:55.260Z,101088.00
2018-07-12T15:52:59.721Z,101089.00
2018-07-12T15:58:03.706Z,101085.00
2018-07-12T16:03:07.468Z,101081.00
2018-07-12T16:08:11.248Z,101076.00
2018-07-12T16:13:15.016Z,101070.00
2018-07-12T16:18:19.025Z,101068.00
2018-07-12T16:23:23.053Z,101070.00
2018-07-12T16:28:26.842Z,101062.00
2018-07-12T16:33:30.596Z,101061.00
2018-07-12T16:38:34.360Z,101059.00
2018-07-12T16:43:38.136Z,101067.00
2018-07-12T16:48:42.021Z,101066.00
2018-07-12T16:53:45.667Z,101064.00
2018-07-12T16:58:49.812Z,101063.00
2018-07-12T17:03:53.804Z,101065.00
2018-07-12T17:08:57.816Z,101063.00
2018-07-12T17:14:01.892Z,101069.00
2018-07-12T17:19:05.826Z,101073.00
2018-07-12T17:24:09.811Z,101075.00
2018-07-12T17:29:13.607Z,101075.00
2018-07-12T17:34:17.728Z,101073.00
2018-07-12T17:39:21.745Z,101078.00
2018-07-12T17:44:26.388Z,101078.00
2018-07-12T17:49:30.492Z,101076.00
2018-07-12T17:54:34.264Z,101078.00
2018-07-12T17:59:38.022Z,101077.00
2018-07-12T18:04:41.798Z,101076.00
2018-07-12T18:09:45.861Z,101075.00
2018-07-12T18:14:49.844Z,101072.00
2018-07-12T18:19:53.837Z,101079.00
2018-07-12T18:24:57.625Z,101074.00
2018-07-12T18:30:01.647Z,101077.00
2018-07-12T18:35:05.423Z,101070.00
2018-07-12T18:40:09.192Z,101076.00
2018-07-12T18:45:13.185Z,101075.00
2018-07-12T18:50:16.956Z,101073.00
2018-07-12T18:55:20.956Z,101078.00
2018-07-12T19:00:24.724Z,101084.00
2018-07-12T19:05:28.506Z,101089.00
2018-07-12T19:10:32.271Z,101091.00
2018-07-12T19:15:36.036Z,101093.00
2018-07-12T19:20:39.883Z,101098.00
2018-07-12T19:25:43.668Z,101100.00
2018-07-12T19:30:47.431Z,101097.00
2018-07-12T19:35:51.215Z,101099.00
2018-07-12T19:40:55.192Z,101103.00
2018-07-12T19:45:59.193Z,101106.00
2018-07-12T19:51:02.952Z,101111.00
2018-07-12T19:56:06.764Z,101124.00
2018-07-12T20:01:10.833Z,101130.00
2018-07-12T20:06:14.731Z,101140.00
2018-07-12T20:11:18.720Z,101148.00
2018-07-12T20:16:22.480Z,101161.00
2018-07-12T20:21:26.533Z,101167.00
2018-07-12T20:26:30.544Z,101175.00
2018-07-12T20:31:34.576Z,101175.00
2018-07-12T20:36:38.581Z,101186.00
2018-07-12T20:41:42.619Z,101200.00
2018-07-12T20:46:46.398Z,101207.00
2018-07-12T20:51:50.180Z,101205.00
2018-07-12T20:56:53.956Z,101207.00
2018-07-12T21:01:57.736Z,101217.00
2018-07-12T21:07:01.499Z,101229.00
2018-07-12T21:12:05.552Z,101226.00
2018-07-12T21:17:09.324Z,101232.00
2018-07-12T21:22:13.239Z,101230.00
2018-07-12T21:27:17.224Z,101233.00
2018-07-12T21:32:20.994Z,101231.00
2018-07-12T21:37:24.764Z,101233.00
2018-07-12T21:42:28.547Z,101237.00
2018-07-12T21:47:32.484Z,101241.00
2018-07-12T21:52:36.477Z,101244.00
2018-07-12T21:57:40.271Z,101243.00
2018-07-12T22:02:44.287Z,101242.00
2018-07-12T22:08:23.108Z,101244.00
2018-07-12T22:13:27.612Z,101244.00
2018-07-12T22:18:31.387Z,101240.00
2018-07-12T22:23:35.494Z,101247.00
2018-07-12T22:28:39.475Z,101246.00
2018-07-12T22:33:43.264Z,101248.00
2018-07-12T22:38:47.261Z,101244.00
2018-07-12T22:43:51.028Z,101248.00
2018-07-12T22:48:54.924Z,101249.00
2018-07-12T22:53:58.568Z,101254.00
2018-07-12T22:59:02.335Z,101251.00
2018-07-12T23:04:06.115Z,101254.00
2018-07-12T23:09:10.107Z,101253.00
2018-07-12T23:14:13.931Z,101253.00
2018-07-12T23:19:17.996Z,101253.00
2018-07-12T23:24:21.763Z,101251.00
2018-07-12T23:29:25.836Z,101255.00
2018-07-12T23:34:29.832Z,101257.00
2018-07-12T23:39:33.841Z,101261.00
2018-07-12T23:44:37.860Z,101258.00
2018-07-12T23:49:41.866Z,101267.00
2018-07-12T23:54:45.892Z,101267.00
2018-07-12T23:59:49.660Z,101267.00
